createdAt,value
2023-09-06T00:01:32.416Z,30.6
2023-09-06T00:07:26.738Z,30.7
2023-09-06T00:13:18.982Z,30.8
2023-09-06T00:19:11.676Z,30.8
2023-09-06T00:25:04.236Z,30.8
2023-09-06T00:30:56.289Z,30.9
2023-09-06T00:36:48.852Z,30.9
2023-09-06T00:42:41.760Z,30.9
2023-09-06T00:48:34.001Z,30.9
2023-09-06T00:54:25.324Z,31
2023-09-06T01:00:17.287Z,31.1
2023-09-06T01:06:10.971Z,31.1
2023-09-06T01:12:01.683Z,31.1
2023-09-06T01:17:54.754Z,31.1
2023-09-06T01:23:47.050Z,31.2
2023-09-06T01:29:39.389Z,31.3
2023-09-06T01:35:33.091Z,31.3
2023-09-06T01:41:24.930Z,31.3
2023-09-06T01:47:17.023Z,31.3
2023-09-06T01:53:09.560Z,31.3
2023-09-06T01:59:01.568Z,31.4
2023-09-06T02:04:23.626Z,31.4
2023-09-06T02:10:15.733Z,31.4
2023-09-06T02:16:07.485Z,31.4
2023-09-06T02:21:44.881Z,31.5
2023-09-06T02:27:36.571Z,31.5
2023-09-06T02:33:29.557Z,31.5
2023-09-06T02:39:21.227Z,31.6
2023-09-06T02:45:13.557Z,31.6
2023-09-06T02:51:05.773Z,31.6
2023-09-06T02:56:57.977Z,31.6
2023-09-06T03:02:50.950Z,31.6
2023-09-06T03:08:43.776Z,31.7
2023-09-06T03:14:35.212Z,31.7
2023-09-06T03:20:29.579Z,31.8
2023-09-06T03:26:20.989Z,31.8
2023-09-06T03:32:13.683Z,31.8
2023-09-06T03:38:06.433Z,31.8
2023-09-06T03:43:59.076Z,31.8
2023-09-06T03:49:52.682Z,31.8
2023-09-06T03:55:30.254Z,31.9
2023-09-06T04:01:22.585Z,31.9
2023-09-06T04:07:16.103Z,31.9
2023-09-06T04:13:11.279Z,31.9
2023-09-06T04:19:04.300Z,31.9
2023-09-06T04:24:55.143Z,31.9
2023-09-06T04:30:48.473Z,31.9
2023-09-06T04:36:40.329Z,31.9
2023-09-06T04:42:31.957Z,31.9
2023-09-06T04:48:28.573Z,31.9
2023-09-06T04:54:05.672Z,32
2023-09-06T04:59:57.888Z,32
2023-09-06T05:05:51.385Z,32
2023-09-06T05:11:43.526Z,32.1
2023-09-06T05:17:35.758Z,32.1
2023-09-06T05:23:28.441Z,32.1
2023-09-06T05:29:04.449Z,32.1
2023-09-06T05:34:40.680Z,32.1
2023-09-06T05:40:17.773Z,32.1
2023-09-06T05:46:25.473Z,32.1
2023-09-06T05:52:25.067Z,32.1
2023-09-06T05:58:19.375Z,32.1
2023-09-06T06:04:11.952Z,32.1
2023-09-06T06:10:02.931Z,32.1
2023-09-06T06:16:06.727Z,32.1
2023-09-06T06:22:06.962Z,32.1
2023-09-06T06:27:59.124Z,32.1
2023-09-06T06:33:55.669Z,32.1
2023-09-06T06:39:47.819Z,32.1
2023-09-06T06:45:39.013Z,32.1
2023-09-06T06:51:32.963Z,32.1
2023-09-06T06:57:28.872Z,32.1
2023-09-06T07:03:20.740Z,32.1
2023-09-06T07:09:13.693Z,32.1
2023-09-06T07:15:06.054Z,32.1
2023-09-06T07:21:03.138Z,32.1
2023-09-06T07:26:54.786Z,32.1
2023-09-06T07:32:46.730Z,32.1
2023-09-06T07:38:40.258Z,32
2023-09-06T07:44:33.262Z,31.9
2023-09-06T07:50:27.643Z,31.9
2023-09-06T07:56:19.786Z,31.9
2023-09-06T08:02:25.787Z,31.9
2023-09-06T08:08:19.830Z,31.9
2023-09-06T08:14:12.355Z,31.9
2023-09-06T08:19:53.126Z,32
2023-09-06T08:25:58.772Z,32.8
2023-09-06T08:31:52.857Z,33.8
2023-09-06T08:37:46.605Z,34.7
2023-09-06T08:43:38.984Z,35.6
2023-09-06T08:49:16.819Z,36.3
2023-09-06T08:54:55.847Z,37.2
2023-09-06T09:00:49.634Z,37.9
2023-09-06T09:06:59.322Z,38.6
2023-09-06T09:12:52.322Z,38.8
2023-09-06T09:19:03.186Z,39.1
2023-09-06T09:24:56.305Z,39.6
2023-09-06T09:30:50.332Z,39.6
2023-09-06T09:36:43.139Z,39.6
2023-09-06T09:42:48.677Z,39.5
2023-09-06T09:48:59.173Z,39.5
2023-09-06T09:55:02.279Z,39.4
2023-09-06T10:00:38.328Z,39.4
2023-09-06T10:06:42.141Z,39.4
2023-09-06T10:12:50.726Z,39.4
2023-09-06T10:18:46.598Z,39.4
2023-09-06T10:24:55.161Z,39.3
2023-09-06T10:31:07.604Z,39.3
2023-09-06T10:36:59.293Z,39.3
2023-09-06T10:42:51.608Z,39.3
2023-09-06T10:48:44.399Z,39.3
2023-09-06T10:54:40.511Z,39.2
2023-09-06T11:00:17.875Z,39.2
2023-09-06T11:06:09.954Z,39.2
2023-09-06T11:12:20.927Z,39.1
2023-09-06T11:18:13.724Z,39.1
2023-09-06T11:24:06.794Z,39.1
2023-09-06T11:29:43.964Z,39.1
2023-09-06T11:35:37.269Z,39.1
2023-09-06T11:41:28.708Z,39
2023-09-06T11:47:20.939Z,39
2023-09-06T11:53:29.570Z,39
2023-09-06T11:59:22.874Z,38.9
2023-09-06T12:05:15.992Z,38.9
2023-09-06T12:11:24.897Z,38.9
2023-09-06T12:17:19.066Z,38.9
2023-09-06T12:22:57.526Z,38.9
2023-09-06T12:28:18.817Z,38.8
2023-09-06T12:34:23.463Z,38.8
2023-09-06T12:40:16.884Z,38.8
2023-09-06T12:46:12.272Z,38.8
2023-09-06T12:52:04.462Z,38.8
2023-09-06T12:57:59.713Z,38.7
2023-09-06T13:03:52.654Z,38.7
2023-09-06T13:09:45.815Z,38.6
2023-09-06T13:15:25.191Z,38.6
2023-09-06T13:21:19.395Z,38.6
2023-09-06T13:27:11.696Z,38.6
2023-09-06T13:33:03.792Z,38.5
2023-09-06T13:38:57.626Z,38.4
2023-09-06T13:44:52.063Z,38.5
2023-09-06T13:50:45.437Z,38.4
2023-09-06T13:56:38.103Z,38.4
2023-09-06T14:02:15.292Z,38.4
2023-09-06T14:08:08.342Z,38.4
2023-09-06T14:14:00.423Z,38.3
2023-09-06T14:19:37.576Z,38.3
2023-09-06T14:25:29.824Z,38.3
2023-09-06T14:31:23.374Z,38.3
2023-09-06T14:37:16.190Z,38.3
2023-09-06T14:42:52.908Z,38.2
2023-09-06T14:48:46.439Z,38.2
2023-09-06T14:54:37.603Z,38.2
2023-09-06T15:06:14.893Z,38.1
2023-09-06T15:12:28.090Z,38.1
2023-09-06T15:18:03.631Z,38.1
2023-09-06T15:24:08.556Z,38.1
2023-09-06T15:29:59.730Z,38.1
2023-09-06T15:35:51.653Z,38
2023-09-06T15:41:42.999Z,38
2023-09-06T15:47:34.537Z,38
2023-09-06T15:53:26.988Z,37.9
2023-09-06T15:59:19.369Z,37.9
2023-09-06T16:05:31.012Z,37.9
2023-09-06T16:11:23.754Z,37.9
2023-09-06T16:17:18.883Z,37.9
2023-09-06T16:23:13.646Z,37.8
2023-09-06T16:29:05.281Z,37.8
2023-09-06T16:34:59.162Z,37.8
2023-09-06T16:40:52.592Z,37.8
2023-09-06T16:46:44.173Z,37.8
2023-09-06T16:52:38.556Z,37.7
2023-09-06T16:58:30.866Z,37.7
2023-09-06T17:04:23.804Z,37.6
2023-09-06T17:10:15.756Z,37.6
2023-09-06T17:16:07.101Z,37.6
2023-09-06T17:22:00.944Z,37.6
2023-09-06T17:28:03.132Z,37.6
2023-09-06T17:33:54.866Z,37.5
2023-09-06T17:39:30.527Z,37.5
2023-09-06T17:45:22.278Z,37.5
2023-09-06T17:51:15.437Z,37.4
2023-09-06T17:57:07.790Z,29.1
2023-09-06T18:03:04.024Z,25.1
2023-09-06T18:08:58.793Z,25.1
2023-09-06T18:14:50.342Z,25.2
2023-09-06T18:20:43.024Z,25.3
2023-09-06T18:26:37.686Z,25.3
2023-09-06T18:32:28.655Z,25.3
2023-09-06T18:38:04.665Z,25.4
2023-09-06T18:43:56.728Z,25.4
2023-09-06T18:49:34.626Z,25.5
2023-09-06T18:55:26.328Z,25.6
2023-09-06T19:01:30.675Z,25.6
2023-09-06T19:07:24.758Z,25.7
2023-09-06T19:13:16.932Z,25.8
2023-09-06T19:19:11.176Z,25.8
2023-09-06T19:25:02.108Z,25.9
2023-09-06T19:30:55.426Z,25.9
2023-09-06T19:36:51.781Z,26
2023-09-06T19:42:43.468Z,26.1
2023-09-06T19:48:21.633Z,26.1
2023-09-06T19:54:29.962Z,26.2
2023-09-06T20:00:20.904Z,26.3
2023-09-06T20:06:16.557Z,26.3
2023-09-06T20:11:53.129Z,26.3
2023-09-06T20:17:31.100Z,26.4
2023-09-06T20:23:23.168Z,26.4
2023-09-06T20:29:14.688Z,26.5
2023-09-06T20:35:06.726Z,26.6
2023-09-06T20:40:59.138Z,26.6
2023-09-06T20:46:51.139Z,26.6
2023-09-06T20:52:43.632Z,26.7
2023-09-06T20:58:35.204Z,26.8
2023-09-06T21:04:30.411Z,26.8
2023-09-06T21:10:06.215Z,26.8
2023-09-06T21:15:42.821Z,26.9
2023-09-06T21:21:21.482Z,26.9
2023-09-06T21:27:12.634Z,26.9
2023-09-06T21:33:15.196Z,27
2023-09-06T21:39:07.153Z,27.1
2023-09-06T21:45:12.664Z,27.1
2023-09-06T21:51:06.022Z,27.1
2023-09-06T21:56:57.827Z,27.2
2023-09-06T22:03:05.430Z,27.3
2023-09-06T22:08:58.205Z,27.3
2023-09-06T22:14:49.961Z,27.3
2023-09-06T22:20:41.696Z,27.3
2023-09-06T22:26:33.854Z,27.4
2023-09-06T22:32:26.955Z,27.4
2023-09-06T22:38:18.385Z,27.4
2023-09-06T22:43:55.729Z,27.4
2023-09-06T22:50:02.690Z,27.5
2023-09-06T22:55:55.115Z,27.6
2023-09-06T23:01:48.240Z,27.6
2023-09-06T23:07:43.653Z,27.6
2023-09-06T23:13:20.085Z,27.6
2023-09-06T23:18:57.472Z,27.7
2023-09-06T23:24:50.004Z,27.7
2023-09-06T23:30:26.786Z,27.8
2023-09-06T23:36:20.062Z,27.8
2023-09-06T23:59:16.020Z,27.9
